sensor_id;sensor_type;location;lat;lon;timestamp;pressure;altitude;pressure_sealevel;temperature;humidity
11605;BME280;5858;43.076;25.626;2022-07-29T00:03:54;99137.13;;;21.22;100.00
11605;BME280;5858;43.076;25.626;2022-07-29T00:06:29;99183.84;;;21.36;99.27
11605;BME280;5858;43.076;25.626;2022-07-29T00:09:12;99147.19;;;20.95;100.00
11605;BME280;5858;43.076;25.626;2022-07-29T00:11:54;99106.53;;;20.83;99.98
11605;BME280;5858;43.076;25.626;2022-07-29T00:14:23;99175.31;;;21.05;100.00
11605;BME280;5858;43.076;25.626;2022-07-29T00:16:58;99327.03;;;22.08;100.00
11605;BME280;5858;43.076;25.626;2022-07-29T00:19:34;99222.72;;;21.58;99.56
11605;BME280;5858;43.076;25.626;2022-07-29T00:22:12;99303.00;;;22.32;96.80
11605;BME280;5858;43.076;25.626;2022-07-29T00:24:59;99297.06;;;22.08;95.61
11605;BME280;5858;43.076;25.626;2022-07-29T00:27:30;99202.28;;;21.83;95.41
11605;BME280;5858;43.076;25.626;2022-07-29T00:30:00;99320.72;;;22.66;95.07
11605;BME280;5858;43.076;25.626;2022-07-29T00:32:54;99325.88;;;22.62;95.95
11605;BME280;5858;43.076;25.626;2022-07-29T00:35:36;99036.81;;;20.77;96.60
11605;BME280;5858;43.076;25.626;2022-07-29T00:38:38;99086.50;;;20.94;96.83
11605;BME280;5858;43.076;25.626;2022-07-29T00:41:37;99314.59;;;22.17;98.03
11605;BME280;5858;43.076;25.626;2022-07-29T00:44:10;99133.84;;;20.71;98.78
11605;BME280;5858;43.076;25.626;2022-07-29T00:46:42;99131.13;;;20.93;98.17
11605;BME280;5858;43.076;25.626;2022-07-29T00:49:31;99329.31;;;22.16;98.23
11605;BME280;5858;43.076;25.626;2022-07-29T00:52:23;99185.44;;;21.10;99.14
11605;BME280;5858;43.076;25.626;2022-07-29T00:55:14;99213.75;;;21.58;98.46
11605;BME280;5858;43.076;25.626;2022-07-29T00:58:00;99077.75;;;20.65;98.15
11605;BME280;5858;43.076;25.626;2022-07-29T01:00:52;99047.47;;;20.57;98.04
11605;BME280;5858;43.076;25.626;2022-07-29T01:03:19;99298.84;;;21.97;99.36
11605;BME280;5858;43.076;25.626;2022-07-29T01:05:46;99166.28;;;21.00;100.00
11605;BME280;5858;43.076;25.626;2022-07-29T01:08:15;99242.56;;;21.54;100.00
11605;BME280;5858;43.076;25.626;2022-07-29T01:10:44;99252.13;;;21.56;100.00
11605;BME280;5858;43.076;25.626;2022-07-29T01:13:13;99130.81;;;20.90;100.00
11605;BME280;5858;43.076;25.626;2022-07-29T01:15:44;99143.53;;;21.11;100.00
11605;BME280;5858;43.076;25.626;2022-07-29T01:18:16;99201.97;;;21.25;100.00
11605;BME280;5858;43.076;25.626;2022-07-29T01:21:12;99218.97;;;21.16;100.00
11605;BME280;5858;43.076;25.626;2022-07-29T01:24:07;99238.50;;;21.29;100.00
11605;BME280;5858;43.076;25.626;2022-07-29T01:26:47;99322.53;;;21.69;100.00
11605;BME280;5858;43.076;25.626;2022-07-29T01:29:24;99231.88;;;21.47;100.00
11605;BME280;5858;43.076;25.626;2022-07-29T01:31:57;99278.81;;;21.81;100.00
11605;BME280;5858;43.076;25.626;2022-07-29T01:34:34;99165.81;;;21.08;100.00
11605;BME280;5858;43.076;25.626;2022-07-29T01:41:14;99072.66;;;20.47;96.32
11605;BME280;5858;43.076;25.626;2022-07-29T01:47:37;99277.50;;;21.35;97.78
11605;BME280;5858;43.076;25.626;2022-07-29T01:50:12;99050.50;;;19.78;98.48
11605;BME280;5858;43.076;25.626;2022-07-29T01:53:02;99097.22;;;19.97;99.60
11605;BME280;5858;43.076;25.626;2022-07-29T01:55:51;99076.25;;;19.75;98.84
11605;BME280;5858;43.076;25.626;2022-07-29T01:58:50;99048.22;;;19.53;99.61
11605;BME280;5858;43.076;25.626;2022-07-29T02:01:33;99206.31;;;20.61;99.38
11605;BME280;5858;43.076;25.626;2022-07-29T02:04:17;99298.13;;;21.31;100.00
11605;BME280;5858;43.076;25.626;2022-07-29T02:06:50;99232.50;;;20.67;100.00
11605;BME280;5858;43.076;25.626;2022-07-29T02:09:34;99169.44;;;20.48;100.00
11605;BME280;5858;43.076;25.626;2022-07-29T02:12:10;99217.53;;;21.08;98.17
11605;BME280;5858;43.076;25.626;2022-07-29T02:14:46;99248.97;;;20.99;98.96
11605;BME280;5858;43.076;25.626;2022-07-29T02:17:20;99103.63;;;20.29;98.83
11605;BME280;5858;43.076;25.626;2022-07-29T02:19:50;99206.78;;;20.96;98.19
11605;BME280;5858;43.076;25.626;2022-07-29T02:22:19;99069.50;;;20.17;97.70
11605;BME280;5858;43.076;25.626;2022-07-29T02:24:54;99289.94;;;21.53;97.72
11605;BME280;5858;43.076;25.626;2022-07-29T02:27:38;99085.50;;;20.13;97.04
11605;BME280;5858;43.076;25.626;2022-07-29T02:33:04;99266.81;;;21.12;97.52
11605;BME280;5858;43.076;25.626;2022-07-29T02:35:46;99150.97;;;20.33;97.18
11605;BME280;5858;43.076;25.626;2022-07-29T02:38:26;99153.97;;;20.15;97.29
11605;BME280;5858;43.076;25.626;2022-07-29T02:47:32;99090.31;;;19.72;98.11
11605;BME280;5858;43.076;25.626;2022-07-29T02:50:14;99303.84;;;21.13;97.82
11605;BME280;5858;43.076;25.626;2022-07-29T02:53:08;99241.50;;;20.89;96.43
11605;BME280;5858;43.076;25.626;2022-07-29T02:55:58;99065.81;;;19.67;96.90
11605;BME280;5858;43.076;25.626;2022-07-29T02:58:52;99187.22;;;20.39;95.54
11605;BME280;5858;43.076;25.626;2022-07-29T03:01:45;99013.66;;;19.65;94.51
11605;BME280;5858;43.076;25.626;2022-07-29T03:04:15;99217.28;;;20.88;93.91
11605;BME280;5858;43.076;25.626;2022-07-29T03:06:46;99308.38;;;21.46;93.37
11605;BME280;5858;43.076;25.626;2022-07-29T03:09:38;99011.13;;;19.25;93.81
11605;BME280;5858;43.076;25.626;2022-07-29T03:12:14;99139.84;;;19.96;94.76
11605;BME280;5858;43.076;25.626;2022-07-29T03:14:48;99174.50;;;19.89;96.01
11605;BME280;5858;43.076;25.626;2022-07-29T03:17:15;99301.69;;;20.76;96.39
11605;BME280;5858;43.076;25.626;2022-07-29T03:19:43;99313.13;;;20.95;96.26
11605;BME280;5858;43.076;25.626;2022-07-29T03:22:15;99231.28;;;20.58;96.30
11605;BME280;5858;43.076;25.626;2022-07-29T03:24:45;99167.56;;;19.81;98.44
11605;BME280;5858;43.076;25.626;2022-07-29T03:27:21;99320.84;;;21.03;97.83
11605;BME280;5858;43.076;25.626;2022-07-29T03:29:48;99204.66;;;20.60;96.04
11605;BME280;5858;43.076;25.626;2022-07-29T03:32:15;99232.47;;;21.05;93.35
11605;BME280;5858;43.076;25.626;2022-07-29T03:34:42;99145.66;;;20.60;92.53
11605;BME280;5858;43.076;25.626;2022-07-29T03:37:09;99286.28;;;21.69;91.10
11605;BME280;5858;43.076;25.626;2022-07-29T03:39:40;99205.22;;;21.49;87.75
11605;BME280;5858;43.076;25.626;2022-07-29T03:42:13;99286.09;;;22.29;86.95
11605;BME280;5858;43.076;25.626;2022-07-29T03:44:53;99220.06;;;21.90;87.04
11605;BME280;5858;43.076;25.626;2022-07-29T03:47:23;99186.09;;;21.71;86.02
11605;BME280;5858;43.076;25.626;2022-07-29T03:49:56;99331.38;;;23.05;84.11
11605;BME280;5858;43.076;25.626;2022-07-29T03:52:59;99157.81;;;22.09;83.30
11605;BME280;5858;43.076;25.626;2022-07-29T03:55:44;99208.28;;;23.06;80.68
11605;BME280;5858;43.076;25.626;2022-07-29T03:58:36;99114.88;;;22.84;78.43
11605;BME280;5858;43.076;25.626;2022-07-29T04:04:54;99295.44;;;24.82;73.77
11605;BME280;5858;43.076;25.626;2022-07-29T04:07:59;99221.63;;;24.41;73.13
11605;BME280;5858;43.076;25.626;2022-07-29T04:10:53;99264.84;;;24.39;73.80
11605;BME280;5858;43.076;25.626;2022-07-29T04:13:26;99387.13;;;25.00;74.29
11605;BME280;5858;43.076;25.626;2022-07-29T04:15:54;99279.59;;;24.18;75.88
11605;BME280;5858;43.076;25.626;2022-07-29T04:18:30;99271.63;;;23.86;76.92
11605;BME280;5858;43.076;25.626;2022-07-29T04:20:57;99282.28;;;23.88;76.61
11605;BME280;5858;43.076;25.626;2022-07-29T04:23:26;99212.50;;;23.54;77.52
11605;BME280;5858;43.076;25.626;2022-07-29T04:25:53;99386.25;;;24.18;79.06
11605;BME280;5858;43.076;25.626;2022-07-29T04:28:19;99354.78;;;24.26;78.46
11605;BME280;5858;43.076;25.626;2022-07-29T04:30:48;99301.47;;;24.23;77.93
11605;BME280;5858;43.076;25.626;2022-07-29T04:33:15;99373.72;;;24.88;77.30
11605;BME280;5858;43.076;25.626;2022-07-29T04:35:42;99252.81;;;24.35;75.21
11605;BME280;5858;43.076;25.626;2022-07-29T04:38:09;99306.34;;;24.92;74.80
11605;BME280;5858;43.076;25.626;2022-07-29T04:40:36;99237.47;;;24.49;74.22
11605;BME280;5858;43.076;25.626;2022-07-29T04:43:03;99340.28;;;25.06;74.00
11605;BME280;5858;43.076;25.626;2022-07-29T04:45:30;99308.00;;;25.03;74.15
11605;BME280;5858;43.076;25.626;2022-07-29T04:47:59;99380.13;;;25.73;73.57
11605;BME280;5858;43.076;25.626;2022-07-29T04:50:26;99219.38;;;24.69;72.23
11605;BME280;5858;43.076;25.626;2022-07-29T04:53:02;99172.19;;;24.97;70.18
11605;BME280;5858;43.076;25.626;2022-07-29T04:55:31;99343.78;;;26.02;69.63
11605;BME280;5858;43.076;25.626;2022-07-29T04:58:15;99239.09;;;25.40;69.84
11605;BME280;5858;43.076;25.626;2022-07-29T05:00:58;99288.88;;;25.63;69.48
11605;BME280;5858;43.076;25.626;2022-07-29T05:03:26;99288.94;;;25.97;69.49
11605;BME280;5858;43.076;25.626;2022-07-29T05:06:01;99248.66;;;25.92;67.63
11605;BME280;5858;43.076;25.626;2022-07-29T05:08:28;99192.31;;;25.76;66.65
11605;BME280;5858;43.076;25.626;2022-07-29T05:11:17;99274.03;;;26.47;64.75
11605;BME280;5858;43.076;25.626;2022-07-29T05:13:47;99382.81;;;27.78;63.90
11605;BME280;5858;43.076;25.626;2022-07-29T05:16:20;99385.19;;;28.08;61.40
11605;BME280;5858;43.076;25.626;2022-07-29T05:25:46;99202.63;;;27.05;59.07
11605;BME280;5858;43.076;25.626;2022-07-29T05:28:13;99343.31;;;28.11;60.14
11605;BME280;5858;43.076;25.626;2022-07-29T05:30:47;99214.69;;;27.47;58.86
11605;BME280;5858;43.076;25.626;2022-07-29T05:33:46;99401.47;;;28.61;58.86
11605;BME280;5858;43.076;25.626;2022-07-29T05:36:17;99214.94;;;27.69;60.24
11605;BME280;5858;43.076;25.626;2022-07-29T05:38:44;99311.63;;;28.65;58.69
11605;BME280;5858;43.076;25.626;2022-07-29T05:41:16;99190.44;;;27.86;57.16
11605;BME280;5858;43.076;25.626;2022-07-29T05:43:43;99204.38;;;27.95;58.38
11605;BME280;5858;43.076;25.626;2022-07-29T05:46:10;99280.53;;;28.65;58.33
11605;BME280;5858;43.076;25.626;2022-07-29T05:48:44;99203.72;;;27.66;58.29
11605;BME280;5858;43.076;25.626;2022-07-29T05:51:11;99286.00;;;28.51;56.81
11605;BME280;5858;43.076;25.626;2022-07-29T05:53:41;99279.19;;;28.95;57.50
11605;BME280;5858;43.076;25.626;2022-07-29T05:56:10;99314.91;;;29.41;53.20
11605;BME280;5858;43.076;25.626;2022-07-29T05:58:39;99253.88;;;29.48;52.78
11605;BME280;5858;43.076;25.626;2022-07-29T06:01:06;99258.59;;;29.69;50.35
11605;BME280;5858;43.076;25.626;2022-07-29T06:03:33;99351.13;;;30.39;49.53
11605;BME280;5858;43.076;25.626;2022-07-29T06:06:03;99360.09;;;30.45;48.74
11605;BME280;5858;43.076;25.626;2022-07-29T06:08:31;99333.66;;;30.52;48.84
11605;BME280;5858;43.076;25.626;2022-07-29T06:10:59;99397.19;;;31.19;48.99
11605;BME280;5858;43.076;25.626;2022-07-29T06:13:26;99320.69;;;31.06;47.26
11605;BME280;5858;43.076;25.626;2022-07-29T06:15:55;99317.28;;;31.09;47.61
11605;BME280;5858;43.076;25.626;2022-07-29T06:18:22;99323.47;;;31.54;45.26
11605;BME280;5858;43.076;25.626;2022-07-29T06:21:00;99404.84;;;32.02;44.61
11605;BME280;5858;43.076;25.626;2022-07-29T06:23:33;99282.97;;;31.67;40.66
11605;BME280;5858;43.076;25.626;2022-07-29T06:26:00;99210.19;;;31.32;39.58
11605;BME280;5858;43.076;25.626;2022-07-29T06:28:27;99358.75;;;32.14;41.55
11605;BME280;5858;43.076;25.626;2022-07-29T06:30:56;99273.44;;;31.73;40.98
11605;BME280;5858;43.076;25.626;2022-07-29T06:33:23;99374.94;;;32.30;38.86
11605;BME280;5858;43.076;25.626;2022-07-29T06:35:50;99390.09;;;32.67;37.30
11605;BME280;5858;43.076;25.626;2022-07-29T06:38:17;99382.91;;;32.83;38.48
11605;BME280;5858;43.076;25.626;2022-07-29T06:40:44;99326.97;;;32.90;37.68
11605;BME280;5858;43.076;25.626;2022-07-29T06:43:29;99342.75;;;33.44;38.29
11605;BME280;5858;43.076;25.626;2022-07-29T06:46:05;99231.13;;;33.09;37.62
11605;BME280;5858;43.076;25.626;2022-07-29T06:48:41;99203.03;;;32.90;36.74
11605;BME280;5858;43.076;25.626;2022-07-29T06:51:24;99257.22;;;32.62;37.01
11605;BME280;5858;43.076;25.626;2022-07-29T06:53:53;99266.34;;;32.71;39.54
11605;BME280;5858;43.076;25.626;2022-07-29T06:56:20;99176.81;;;32.23;39.89
11605;BME280;5858;43.076;25.626;2022-07-29T06:58:47;99245.06;;;32.37;40.94
11605;BME280;5858;43.076;25.626;2022-07-29T07:01:20;99178.03;;;31.88;38.43
11605;BME280;5858;43.076;25.626;2022-07-29T07:03:47;99332.09;;;32.44;39.22
11605;BME280;5858;43.076;25.626;2022-07-29T07:06:14;99190.47;;;31.16;39.68
11605;BME280;5858;43.076;25.626;2022-07-29T07:08:41;99273.84;;;31.58;40.12
11605;BME280;5858;43.076;25.626;2022-07-29T07:11:09;99239.34;;;30.98;41.90
11605;BME280;5858;43.076;25.626;2022-07-29T07:13:36;99251.06;;;30.64;42.52
11605;BME280;5858;43.076;25.626;2022-07-29T07:16:04;99237.81;;;30.53;42.25
11605;BME280;5858;43.076;25.626;2022-07-29T07:18:32;99266.81;;;30.64;43.69
11605;BME280;5858;43.076;25.626;2022-07-29T07:20:59;99240.66;;;30.39;41.23
11605;BME280;5858;43.076;25.626;2022-07-29T07:23:26;99320.63;;;30.66;41.86
11605;BME280;5858;43.076;25.626;2022-07-29T07:25:53;99350.06;;;30.93;41.73
11605;BME280;5858;43.076;25.626;2022-07-29T07:28:20;99258.72;;;30.23;41.63
11605;BME280;5858;43.076;25.626;2022-07-29T07:30:47;99259.44;;;30.28;41.64
11605;BME280;5858;43.076;25.626;2022-07-29T07:33:16;99234.78;;;30.10;42.07
11605;BME280;5858;43.076;25.626;2022-07-29T07:35:44;99231.25;;;30.18;44.73
11605;BME280;5858;43.076;25.626;2022-07-29T07:38:11;99335.41;;;30.93;42.98
11605;BME280;5858;43.076;25.626;2022-07-29T07:40:38;99225.75;;;30.18;39.58
11605;BME280;5858;43.076;25.626;2022-07-29T07:43:05;99250.44;;;30.45;39.49
11605;BME280;5858;43.076;25.626;2022-07-29T07:45:32;99352.59;;;31.43;38.40
11605;BME280;5858;43.076;25.626;2022-07-29T07:47:59;99255.91;;;30.90;36.53
11605;BME280;5858;43.076;25.626;2022-07-29T07:50:26;99311.00;;;31.17;36.66
11605;BME280;5858;43.076;25.626;2022-07-29T07:52:55;99312.28;;;31.20;37.78
11605;BME280;5858;43.076;25.626;2022-07-29T07:55:23;99267.28;;;30.88;37.59
11605;BME280;5858;43.076;25.626;2022-07-29T07:57:51;99227.19;;;30.68;38.54
11605;BME280;5858;43.076;25.626;2022-07-29T08:00:18;99187.06;;;30.40;37.83
11605;BME280;5858;43.076;25.626;2022-07-29T08:02:48;99349.38;;;31.67;39.25
11605;BME280;5858;43.076;25.626;2022-07-29T08:05:15;99232.13;;;30.80;39.58
11605;BME280;5858;43.076;25.626;2022-07-29T08:07:46;99258.00;;;30.84;38.05
11605;BME280;5858;43.076;25.626;2022-07-29T08:10:16;99292.94;;;31.20;38.25
11605;BME280;5858;43.076;25.626;2022-07-29T08:13:04;99337.94;;;31.43;37.00
11605;BME280;5858;43.076;25.626;2022-07-29T08:15:35;99279.31;;;31.23;38.64
11605;BME280;5858;43.076;25.626;2022-07-29T08:18:02;99260.91;;;31.19;37.90
11605;BME280;5858;43.076;25.626;2022-07-29T08:20:29;99250.47;;;31.16;37.03
11605;BME280;5858;43.076;25.626;2022-07-29T08:22:58;99348.41;;;31.63;37.84
11605;BME280;5858;43.076;25.626;2022-07-29T08:25:27;99313.56;;;31.53;37.64
11605;BME280;5858;43.076;25.626;2022-07-29T08:27:57;99285.22;;;31.48;38.15
11605;BME280;5858;43.076;25.626;2022-07-29T08:30:24;99241.94;;;31.35;37.18
11605;BME280;5858;43.076;25.626;2022-07-29T08:32:51;99205.84;;;31.00;37.25
11605;BME280;5858;43.076;25.626;2022-07-29T08:35:18;99268.31;;;31.58;36.73
11605;BME280;5858;43.076;25.626;2022-07-29T08:37:45;99204.00;;;31.26;36.40
11605;BME280;5858;43.076;25.626;2022-07-29T08:40:13;99170.59;;;31.06;35.63
11605;BME280;5858;43.076;25.626;2022-07-29T08:42:42;99149.34;;;30.66;35.95
11605;BME280;5858;43.076;25.626;2022-07-29T08:45:09;99231.03;;;31.38;36.10
11605;BME280;5858;43.076;25.626;2022-07-29T08:47:38;99270.50;;;31.78;38.59
11605;BME280;5858;43.076;25.626;2022-07-29T08:50:06;99200.28;;;31.48;36.76
11605;BME280;5858;43.076;25.626;2022-07-29T08:52:36;99083.09;;;30.84;37.53
11605;BME280;5858;43.076;25.626;2022-07-29T08:55:05;99298.31;;;32.51;36.46
11605;BME280;5858;43.076;25.626;2022-07-29T08:57:33;99213.50;;;32.03;36.18
11605;BME280;5858;43.076;25.626;2022-07-29T09:00:05;99248.94;;;32.53;35.38
11605;BME280;5858;43.076;25.626;2022-07-29T09:02:40;99260.81;;;32.79;34.93
11605;BME280;5858;43.076;25.626;2022-07-29T09:05:08;99233.09;;;32.71;33.85
11605;BME280;5858;43.076;25.626;2022-07-29T09:07:36;99230.84;;;33.02;32.70
11605;BME280;5858;43.076;25.626;2022-07-29T09:13:11;99119.81;;;32.14;30.73
11605;BME280;5858;43.076;25.626;2022-07-29T09:15:39;99252.22;;;33.02;35.55
11605;BME280;5858;43.076;25.626;2022-07-29T09:18:08;99267.84;;;33.15;30.55
11605;BME280;5858;43.076;25.626;2022-07-29T09:20:35;99273.03;;;33.16;31.45
11605;BME280;5858;43.076;25.626;2022-07-29T09:23:19;99289.78;;;33.29;31.15
11605;BME280;5858;43.076;25.626;2022-07-29T09:25:47;99251.25;;;32.98;31.43
11605;BME280;5858;43.076;25.626;2022-07-29T09:28:17;99200.16;;;32.78;31.63
11605;BME280;5858;43.076;25.626;2022-07-29T09:30:55;99270.06;;;33.30;32.54
11605;BME280;5858;43.076;25.626;2022-07-29T09:33:23;99274.41;;;33.40;32.03
11605;BME280;5858;43.076;25.626;2022-07-29T09:35:59;99272.91;;;33.42;30.11
11605;BME280;5858;43.076;25.626;2022-07-29T09:38:26;99251.44;;;33.31;30.70
11605;BME280;5858;43.076;25.626;2022-07-29T09:40:56;99263.03;;;33.33;29.58
11605;BME280;5858;43.076;25.626;2022-07-29T09:43:23;99299.19;;;33.45;29.45
11605;BME280;5858;43.076;25.626;2022-07-29T09:45:52;99200.63;;;32.80;28.83
11605;BME280;5858;43.076;25.626;2022-07-29T09:48:21;99099.38;;;32.44;29.20
11605;BME280;5858;43.076;25.626;2022-07-29T09:51:27;99217.00;;;33.32;29.22
11605;BME280;5858;43.076;25.626;2022-07-29T09:53:56;99238.53;;;33.35;29.04
11605;BME280;5858;43.076;25.626;2022-07-29T09:56:38;99217.66;;;33.29;29.51
11605;BME280;5858;43.076;25.626;2022-07-29T09:59:08;99206.72;;;33.32;28.54
11605;BME280;5858;43.076;25.626;2022-07-29T10:04:49;99186.44;;;33.61;28.60
11605;BME280;5858;43.076;25.626;2022-07-29T10:07:27;99131.00;;;33.32;28.60
11605;BME280;5858;43.076;25.626;2022-07-29T10:10:24;99163.22;;;33.45;27.94
11605;BME280;5858;43.076;25.626;2022-07-29T10:12:53;99220.75;;;33.77;29.01
11605;BME280;5858;43.076;25.626;2022-07-29T10:15:24;99249.81;;;34.01;29.56
11605;BME280;5858;43.076;25.626;2022-07-29T10:17:52;99156.25;;;33.60;29.46
11605;BME280;5858;43.076;25.626;2022-07-29T10:20:49;99203.38;;;33.68;28.07
11605;BME280;5858;43.076;25.626;2022-07-29T10:23:37;99287.69;;;33.85;28.77
11605;BME280;5858;43.076;25.626;2022-07-29T10:26:31;99049.41;;;32.32;29.33
11605;BME280;5858;43.076;25.626;2022-07-29T10:29:06;99206.06;;;33.35;29.19
11605;BME280;5858;43.076;25.626;2022-07-29T10:31:51;99244.81;;;33.94;29.93
11605;BME280;5858;43.076;25.626;2022-07-29T11:05:24;99131.72;;;34.28;28.37
11605;BME280;5858;43.076;25.626;2022-07-29T11:12:12;99036.31;;;33.54;29.55
11605;BME280;5858;43.076;25.626;2022-07-29T11:25:28;99164.13;;;35.06;26.43
11605;BME280;5858;43.076;25.626;2022-07-29T11:28:12;99004.22;;;33.77;28.14
11605;BME280;5858;43.076;25.626;2022-07-29T11:30:54;99168.16;;;34.71;27.68
11605;BME280;5858;43.076;25.626;2022-07-29T11:33:41;99035.25;;;33.92;28.73
11605;BME280;5858;43.076;25.626;2022-07-29T11:36:40;99101.44;;;34.47;28.02
11605;BME280;5858;43.076;25.626;2022-07-29T11:39:28;99157.72;;;35.17;28.19
11605;BME280;5858;43.076;25.626;2022-07-29T11:45:47;99145.47;;;35.06;29.37
11605;BME280;5858;43.076;25.626;2022-07-29T11:58:30;99062.03;;;34.82;29.41
11605;BME280;5858;43.076;25.626;2022-07-29T12:01:01;99030.56;;;34.65;29.27
11605;BME280;5858;43.076;25.626;2022-07-29T12:04:03;99000.34;;;34.39;29.53
11605;BME280;5858;43.076;25.626;2022-07-29T12:06:35;99018.97;;;34.02;29.26
11605;BME280;5858;43.076;25.626;2022-07-29T12:09:07;99097.41;;;34.57;28.87
11605;BME280;5858;43.076;25.626;2022-07-29T12:11:55;99110.03;;;34.54;29.48
11605;BME280;5858;43.076;25.626;2022-07-29T12:14:50;98965.47;;;33.69;29.40
11605;BME280;5858;43.076;25.626;2022-07-29T12:20:47;99139.31;;;34.64;30.48
11605;BME280;5858;43.076;25.626;2022-07-29T12:23:15;99173.88;;;34.87;29.84
11605;BME280;5858;43.076;25.626;2022-07-29T12:25:43;99127.75;;;34.86;29.24
11605;BME280;5858;43.076;25.626;2022-07-29T12:28:13;99122.16;;;34.98;29.25
11605;BME280;5858;43.076;25.626;2022-07-29T12:30:46;99147.44;;;35.06;28.90
11605;BME280;5858;43.076;25.626;2022-07-29T12:33:22;99092.84;;;34.52;29.12
11605;BME280;5858;43.076;25.626;2022-07-29T12:35:56;99099.56;;;34.51;29.37
11605;BME280;5858;43.076;25.626;2022-07-29T12:38:24;99134.34;;;34.69;29.09
11605;BME280;5858;43.076;25.626;2022-07-29T12:41:18;99147.31;;;34.78;30.94
11605;BME280;5858;43.076;25.626;2022-07-29T12:43:56;99061.63;;;34.55;29.65
11605;BME280;5858;43.076;25.626;2022-07-29T12:46:23;99062.63;;;34.75;29.90
11605;BME280;5858;43.076;25.626;2022-07-29T12:48:52;99033.66;;;34.76;29.72
11605;BME280;5858;43.076;25.626;2022-07-29T12:51:33;98983.78;;;34.43;29.75
11605;BME280;5858;43.076;25.626;2022-07-29T12:54:03;99087.03;;;35.46;29.16
11605;BME280;5858;43.076;25.626;2022-07-29T12:56:30;99036.06;;;35.30;28.23
11605;BME280;5858;43.076;25.626;2022-07-29T12:58:58;99008.13;;;34.98;28.13
11605;BME280;5858;43.076;25.626;2022-07-29T13:01:25;99116.56;;;35.35;28.38
11605;BME280;5858;43.076;25.626;2022-07-29T13:03:54;98977.19;;;34.48;28.66
11605;BME280;5858;43.076;25.626;2022-07-29T13:06:36;99104.56;;;35.07;29.35
11605;BME280;5858;43.076;25.626;2022-07-29T13:09:09;99044.94;;;34.55;29.40
11605;BME280;5858;43.076;25.626;2022-07-29T13:11:38;98899.16;;;33.55;29.58
11605;BME280;5858;43.076;25.626;2022-07-29T13:14:07;99053.38;;;34.83;29.63
11605;BME280;5858;43.076;25.626;2022-07-29T13:16:35;99046.41;;;34.89;28.93
11605;BME280;5858;43.076;25.626;2022-07-29T13:19:32;99069.38;;;35.26;29.84
11605;BME280;5858;43.076;25.626;2022-07-29T13:22:04;98991.44;;;34.98;29.38
11605;BME280;5858;43.076;25.626;2022-07-29T13:24:31;99102.09;;;35.85;28.35
11605;BME280;5858;43.076;25.626;2022-07-29T13:26:58;99002.91;;;35.09;27.91
11605;BME280;5858;43.076;25.626;2022-07-29T13:29:26;98918.81;;;34.60;27.83
11605;BME280;5858;43.076;25.626;2022-07-29T13:31:53;99050.88;;;35.46;27.98
11605;BME280;5858;43.076;25.626;2022-07-29T13:34:20;99062.94;;;35.50;27.90
11605;BME280;5858;43.076;25.626;2022-07-29T13:36:49;99035.25;;;35.29;27.94
11605;BME280;5858;43.076;25.626;2022-07-29T13:39:17;99010.38;;;35.21;26.87
11605;BME280;5858;43.076;25.626;2022-07-29T13:41:45;98971.34;;;35.17;27.73
11605;BME280;5858;43.076;25.626;2022-07-29T13:44:13;99045.41;;;35.93;27.27
11605;BME280;5858;43.076;25.626;2022-07-29T13:46:42;99073.66;;;36.23;26.51
11605;BME280;5858;43.076;25.626;2022-07-29T13:49:09;99033.34;;;35.74;26.69
11605;BME280;5858;43.076;25.626;2022-07-29T13:51:37;99027.34;;;35.44;nan
11605;BME280;5858;43.076;25.626;2022-07-29T13:54:07;99066.38;;;35.59;27.71
11605;BME280;5858;43.076;25.626;2022-07-29T13:56:36;99034.50;;;35.17;27.85
11605;BME280;5858;43.076;25.626;2022-07-29T13:59:07;99072.50;;;35.25;27.59
11605;BME280;5858;43.076;25.626;2022-07-29T14:01:38;98968.75;;;34.44;28.25
11605;BME280;5858;43.076;25.626;2022-07-29T14:04:11;98895.41;;;33.84;27.87
11605;BME280;5858;43.076;25.626;2022-07-29T14:06:38;99063.78;;;34.74;28.64
11605;BME280;5858;43.076;25.626;2022-07-29T14:09:09;99007.16;;;34.30;28.83
11605;BME280;5858;43.076;25.626;2022-07-29T14:11:37;98943.41;;;33.97;28.12
11605;BME280;5858;43.076;25.626;2022-07-29T14:14:05;98920.59;;;34.03;28.37
11605;BME280;5858;43.076;25.626;2022-07-29T14:16:32;99067.94;;;34.92;28.88
11605;BME280;5858;43.076;25.626;2022-07-29T14:18:59;99031.22;;;34.75;28.36
11605;BME280;5858;43.076;25.626;2022-07-29T14:21:26;99039.13;;;34.85;28.94
11605;BME280;5858;43.076;25.626;2022-07-29T14:23:53;99064.72;;;34.90;28.69
11605;BME280;5858;43.076;25.626;2022-07-29T14:26:20;98975.78;;;34.29;29.30
11605;BME280;5858;43.076;25.626;2022-07-29T14:28:50;98977.09;;;34.20;28.98
11605;BME280;5858;43.076;25.626;2022-07-29T14:31:17;98953.25;;;33.94;28.83
11605;BME280;5858;43.076;25.626;2022-07-29T14:33:44;98997.19;;;34.04;28.99
11605;BME280;5858;43.076;25.626;2022-07-29T14:36:11;99054.06;;;34.44;29.29
11605;BME280;5858;43.076;25.626;2022-07-29T14:38:37;98964.38;;;34.06;28.99
11605;BME280;5858;43.076;25.626;2022-07-29T14:41:06;99023.03;;;34.66;28.23
11605;BME280;5858;43.076;25.626;2022-07-29T14:43:33;99016.16;;;34.88;28.66
11605;BME280;5858;43.076;25.626;2022-07-29T14:46:02;98948.34;;;34.64;28.18
11605;BME280;5858;43.076;25.626;2022-07-29T14:48:29;98941.22;;;34.79;28.40
11605;BME280;5858;43.076;25.626;2022-07-29T14:50:56;98947.34;;;34.85;28.06
11605;BME280;5858;43.076;25.626;2022-07-29T14:53:28;98943.41;;;34.86;27.76
11605;BME280;5858;43.076;25.626;2022-07-29T14:55:55;99019.25;;;35.39;27.14
11605;BME280;5858;43.076;25.626;2022-07-29T14:58:22;99023.50;;;35.48;27.99
11605;BME280;5858;43.076;25.626;2022-07-29T15:00:49;98988.72;;;35.14;27.63
11605;BME280;5858;43.076;25.626;2022-07-29T15:03:40;98948.72;;;34.91;27.73
11605;BME280;5858;43.076;25.626;2022-07-29T15:06:07;98872.34;;;34.20;27.85
11605;BME280;5858;43.076;25.626;2022-07-29T15:08:46;98863.91;;;33.80;28.34
11605;BME280;5858;43.076;25.626;2022-07-29T15:15:24;99040.66;;;34.58;29.31
11605;BME280;5858;43.076;25.626;2022-07-29T15:21:24;98934.72;;;33.74;30.03